createdAt,value
2023-01-17T00:02:07.881Z,27.95
2023-01-17T00:04:53.403Z,25.05
2023-01-17T00:07:41.384Z,40.28
2023-01-17T00:10:14.202Z,36.78
2023-01-17T00:12:47.237Z,31.88
2023-01-17T00:15:14.385Z,33.42
2023-01-17T00:17:41.230Z,35.30
2023-01-17T00:20:28.946Z,31.70
2023-01-17T00:23:14.384Z,23.08
2023-01-17T00:26:00.111Z,31.85
2023-01-17T00:28:27.798Z,34.45
2023-01-17T00:30:54.575Z,33.47
2023-01-17T00:33:22.945Z,31.02
2023-01-17T00:35:50.611Z,37.20
2023-01-17T00:38:20.170Z,26.30
2023-01-17T00:40:48.340Z,23.98
2023-01-17T00:43:35.882Z,33.08
2023-01-17T00:46:22.002Z,33.72
2023-01-17T00:49:07.291Z,31.60
2023-01-17T00:51:54.243Z,37.47
2023-01-17T00:54:39.631Z,30.90
2023-01-17T00:57:25.604Z,30.13
2023-01-17T01:00:11.454Z,33.33
2023-01-17T01:02:58.245Z,31.13
2023-01-17T01:05:43.502Z,29.52
2023-01-17T01:08:44.052Z,31.15
2023-01-17T01:11:36.197Z,26.88
2023-01-17T01:14:22.567Z,29.42
2023-01-17T01:17:08.352Z,31.83
2023-01-17T01:19:53.665Z,26.52
2023-01-17T01:22:39.309Z,27.58
2023-01-17T01:25:24.718Z,32.08
2023-01-17T01:28:10.411Z,30.80
2023-01-17T01:30:55.896Z,25.55
2023-01-17T01:33:22.748Z,29.08
2023-01-17T01:35:51.374Z,34.30
2023-01-17T01:38:20.927Z,31.13
2023-01-17T01:40:53.381Z,31.48
2023-01-17T01:43:42.803Z,26.65
2023-01-17T01:46:13.894Z,27.67
2023-01-17T01:48:45.940Z,31.30
2023-01-17T01:51:17.502Z,28.25
2023-01-17T01:53:52.143Z,33.38
2023-01-17T01:56:20.555Z,32.08
2023-01-17T01:58:51.482Z,31.33
2023-01-17T02:01:19.047Z,23.83
2023-01-17T02:03:47.853Z,31.83
2023-01-17T02:06:26.441Z,33.90
2023-01-17T02:08:53.854Z,31.63
2023-01-17T02:11:22.375Z,22.95
2023-01-17T02:13:49.257Z,19.65
2023-01-17T02:16:22.978Z,28.67
2023-01-17T02:19:07.851Z,27.15
2023-01-17T02:21:42.484Z,29.92
2023-01-17T02:24:50.851Z,23.73
2023-01-17T02:27:28.600Z,28.75
2023-01-17T02:30:32.980Z,33.55
2023-01-17T02:33:06.761Z,24.48
2023-01-17T02:35:56.337Z,29.23
2023-01-17T02:38:43.145Z,32.50
2023-01-17T02:41:18.461Z,29.63
2023-01-17T02:43:47.096Z,28.77
2023-01-17T02:46:14.048Z,30.60
2023-01-17T02:48:41.967Z,13.18
2023-01-17T02:51:26.499Z,30.67
2023-01-17T02:54:21.279Z,26.20
2023-01-17T02:56:56.957Z,22.05
2023-01-17T02:59:57.053Z,28.75
2023-01-17T03:03:16.438Z,24.17
2023-01-17T03:06:15.965Z,17.30
2023-01-17T03:08:45.585Z,23.60
2023-01-17T03:11:13.130Z,27.15
2023-01-17T03:13:40.243Z,22.40
2023-01-17T03:16:16.735Z,26.85
2023-01-17T03:18:43.627Z,20.63
2023-01-17T03:21:10.597Z,27.52
2023-01-17T03:23:37.451Z,25.30
2023-01-17T03:26:04.474Z,27.77
2023-01-17T03:28:31.267Z,28.00
2023-01-17T03:30:58.140Z,25.42
2023-01-17T03:33:26.424Z,17.80
2023-01-17T03:35:54.663Z,23.33
2023-01-17T03:38:21.618Z,22.50
2023-01-17T03:40:48.460Z,21.92
2023-01-17T03:43:15.262Z,24.52
2023-01-17T03:45:42.137Z,26.70
2023-01-17T03:48:09.079Z,21.30
2023-01-17T03:50:35.914Z,23.48
2023-01-17T03:53:02.744Z,19.60
2023-01-17T03:55:29.697Z,24.45
2023-01-17T03:57:56.549Z,15.10
2023-01-17T04:00:23.514Z,24.50
2023-01-17T04:02:50.426Z,19.48
2023-01-17T04:05:17.385Z,22.08
2023-01-17T04:07:44.235Z,20.48
2023-01-17T04:10:11.317Z,21.88
2023-01-17T04:12:38.258Z,20.75
2023-01-17T04:15:05.478Z,20.55
2023-01-17T04:17:32.514Z,21.48
2023-01-17T04:19:59.409Z,19.98
2023-01-17T04:22:26.295Z,20.48
2023-01-17T04:24:53.185Z,19.95
2023-01-17T04:27:19.991Z,18.75
2023-01-17T04:29:46.945Z,14.13
2023-01-17T04:32:14.817Z,20.65
2023-01-17T04:34:41.925Z,21.00
2023-01-17T04:37:08.743Z,17.90
2023-01-17T04:39:35.752Z,13.88
2023-01-17T04:42:02.942Z,18.35
2023-01-17T04:44:29.733Z,20.00
2023-01-17T04:46:56.575Z,20.58
2023-01-17T04:49:23.439Z,19.58
2023-01-17T04:51:50.335Z,23.02
2023-01-17T04:54:17.205Z,18.67
2023-01-17T04:56:44.790Z,21.70
2023-01-17T04:59:11.668Z,16.73
2023-01-17T05:01:38.898Z,22.80
2023-01-17T05:04:05.929Z,18.35
2023-01-17T05:06:32.719Z,10.40
2023-01-17T05:08:59.666Z,18.55
2023-01-17T05:11:26.458Z,15.07
2023-01-17T05:13:53.249Z,22.17
2023-01-17T05:16:20.115Z,18.23
2023-01-17T05:18:47.219Z,20.15
2023-01-17T05:21:14.007Z,17.92
2023-01-17T05:23:42.865Z,16.55
2023-01-17T05:26:09.985Z,20.83
2023-01-17T05:28:36.807Z,21.52
2023-01-17T05:31:03.672Z,20.95
2023-01-17T05:33:30.538Z,20.13
2023-01-17T05:35:57.901Z,19.58
2023-01-17T05:38:24.852Z,16.48
2023-01-17T05:40:51.776Z,20.25
2023-01-17T05:43:19.786Z,19.58
2023-01-17T05:45:49.693Z,15.45
2023-01-17T05:48:16.585Z,21.63
2023-01-17T05:50:43.413Z,12.02
2023-01-17T05:53:12.460Z,19.75
2023-01-17T05:55:39.904Z,22.13
2023-01-17T05:58:08.970Z,13.90
2023-01-17T06:00:37.425Z,18.23
2023-01-17T06:03:04.557Z,18.42
2023-01-17T06:05:31.985Z,20.98
2023-01-17T06:07:59.471Z,20.75
2023-01-17T06:10:26.999Z,22.73
2023-01-17T06:13:06.168Z,22.65
2023-01-17T06:15:34.514Z,20.17
2023-01-17T06:18:13.779Z,19.55
2023-01-17T06:20:41.387Z,22.02
2023-01-17T06:23:12.505Z,16.77
2023-01-17T06:25:44.725Z,22.60
2023-01-17T06:28:13.712Z,17.00
2023-01-17T06:30:40.836Z,18.95
2023-01-17T06:33:08.158Z,20.15
2023-01-17T06:35:34.984Z,20.38
2023-01-17T06:38:01.795Z,20.60
2023-01-17T06:40:29.547Z,18.90
2023-01-17T06:43:03.815Z,19.98
2023-01-17T06:45:33.518Z,19.20
2023-01-17T06:48:01.747Z,22.90
2023-01-17T06:50:28.559Z,24.90
2023-01-17T06:52:57.466Z,25.42
2023-01-17T06:55:24.533Z,21.17
2023-01-17T06:57:51.582Z,24.73
2023-01-17T07:00:18.834Z,27.48
2023-01-17T07:02:49.282Z,25.55
2023-01-17T07:05:17.255Z,20.45
2023-01-17T07:07:45.687Z,20.92
2023-01-17T07:10:14.468Z,23.75
2023-01-17T07:12:41.666Z,19.15
2023-01-17T07:15:09.172Z,20.95
2023-01-17T07:17:36.071Z,23.73
2023-01-17T07:20:03.489Z,26.20
2023-01-17T07:22:30.716Z,28.65
2023-01-17T07:24:58.817Z,24.40
2023-01-17T07:27:27.837Z,26.15
2023-01-17T07:29:55.319Z,27.27
2023-01-17T07:32:22.315Z,25.05
2023-01-17T07:34:49.146Z,24.23
2023-01-17T07:37:15.977Z,23.35
2023-01-17T07:39:42.978Z,20.10
2023-01-17T07:42:09.842Z,21.45
2023-01-17T07:44:37.902Z,16.98
2023-01-17T07:47:06.068Z,16.38
2023-01-17T07:49:32.878Z,17.95
2023-01-17T07:51:59.735Z,15.65
2023-01-17T07:54:26.588Z,16.70
2023-01-17T07:56:53.425Z,13.13
2023-01-17T07:59:20.309Z,24.25
2023-01-17T08:01:47.353Z,14.80
2023-01-17T08:04:14.677Z,15.93
2023-01-17T08:06:44.317Z,15.65
2023-01-17T08:09:11.144Z,12.85
2023-01-17T08:11:37.927Z,16.38
2023-01-17T08:14:05.009Z,17.65
2023-01-17T08:16:31.836Z,20.27
2023-01-17T08:18:58.756Z,10.50
2023-01-17T08:21:25.598Z,17.63
2023-01-17T08:23:52.902Z,64.15
2023-01-17T08:26:22.788Z,20.25
2023-01-17T08:28:55.897Z,15.15
2023-01-17T08:33:49.606Z,15.95
2023-01-17T08:36:18.255Z,17.05
2023-01-17T08:38:45.080Z,17.05
2023-01-17T08:41:13.059Z,14.82
2023-01-17T08:43:39.920Z,20.10
2023-01-17T08:46:06.822Z,21.02
2023-01-17T08:48:33.754Z,20.38
2023-01-17T08:51:02.742Z,20.90
2023-01-17T08:53:29.824Z,23.58
2023-01-17T08:56:00.877Z,21.77
2023-01-17T08:58:30.694Z,26.52
2023-01-17T09:01:05.367Z,25.90
2023-01-17T09:03:34.097Z,20.95
2023-01-17T09:06:12.684Z,23.80
2023-01-17T09:08:39.899Z,20.77
2023-01-17T09:11:08.870Z,18.95
2023-01-17T09:13:36.466Z,18.90
2023-01-17T09:16:04.232Z,21.52
2023-01-17T09:18:32.001Z,17.77
2023-01-17T09:20:59.394Z,21.52
2023-01-17T09:23:28.196Z,20.08
2023-01-17T09:25:56.635Z,20.23
2023-01-17T09:28:24.080Z,21.15
2023-01-17T09:30:51.581Z,19.45
2023-01-17T09:33:19.091Z,19.35
2023-01-17T09:35:47.034Z,31.25
2023-01-17T09:38:14.809Z,30.00
2023-01-17T09:40:48.557Z,31.73
2023-01-17T09:43:41.057Z,24.90
2023-01-17T09:46:22.608Z,22.58
2023-01-17T09:49:05.924Z,28.35
2023-01-17T09:51:33.047Z,19.60
2023-01-17T09:54:02.417Z,42.80
2023-01-17T09:56:32.371Z,74.93
2023-01-17T09:59:18.537Z,40.08
2023-01-17T10:02:14.488Z,21.92
2023-01-17T10:05:00.254Z,23.20
2023-01-17T10:07:50.203Z,26.55
2023-01-17T10:10:25.782Z,26.98
2023-01-17T10:13:12.392Z,40.17
2023-01-17T10:16:03.280Z,22.00
2023-01-17T10:19:09.221Z,24.25
2023-01-17T10:21:51.021Z,27.05
2023-01-17T10:24:34.741Z,34.08
2023-01-17T10:27:03.407Z,27.35
2023-01-17T10:29:34.673Z,21.75
2023-01-17T10:32:02.610Z,16.25
2023-01-17T10:34:58.308Z,27.33
2023-01-17T10:37:31.976Z,15.48
2023-01-17T10:40:16.272Z,29.58
2023-01-17T10:42:56.089Z,13.23
2023-01-17T10:45:28.483Z,16.40
2023-01-17T10:48:29.655Z,18.73
2023-01-17T10:51:00.929Z,44.13
2023-01-17T10:53:36.912Z,22.65
2023-01-17T10:56:05.228Z,23.73
2023-01-17T10:58:32.319Z,21.35
2023-01-17T11:01:20.310Z,106.88
2023-01-17T11:03:51.587Z,11.05
2023-01-17T11:06:22.574Z,9.07
2023-01-17T11:08:55.087Z,11.05
2023-01-17T11:11:32.071Z,6.15
2023-01-17T11:14:01.807Z,7.88
2023-01-17T11:16:31.525Z,10.02
2023-01-17T11:19:25.913Z,7.63
2023-01-17T11:21:58.619Z,8.95
2023-01-17T11:24:52.772Z,6.53
2023-01-17T11:27:37.664Z,14.48
2023-01-17T11:30:16.899Z,9.70
2023-01-17T11:33:07.030Z,9.23
2023-01-17T11:35:45.195Z,8.68
2023-01-17T11:38:22.655Z,9.65
2023-01-17T11:40:50.428Z,10.63
2023-01-17T11:43:25.478Z,17.33
2023-01-17T11:46:18.071Z,10.27
2023-01-17T11:48:56.424Z,12.30
2023-01-17T11:51:35.581Z,16.58
2023-01-17T11:54:10.969Z,17.95
2023-01-17T11:56:38.486Z,66.72
2023-01-17T11:59:28.298Z,12.00
2023-01-17T12:02:10.731Z,15.25
2023-01-17T12:04:47.860Z,15.90
2023-01-17T12:07:42.516Z,24.15
2023-01-17T12:10:12.058Z,20.25
2023-01-17T12:13:03.265Z,20.67
2023-01-17T12:16:00.056Z,13.68
2023-01-17T12:18:59.424Z,14.45
2023-01-17T12:21:36.417Z,13.88
2023-01-17T12:24:33.920Z,12.35
2023-01-17T12:27:08.989Z,10.57
2023-01-17T12:29:47.721Z,12.65
2023-01-17T12:32:34.416Z,10.48
2023-01-17T12:35:23.011Z,13.93
2023-01-17T12:38:04.616Z,12.75
2023-01-17T12:40:46.899Z,15.52
2023-01-17T12:43:22.265Z,13.10
2023-01-17T12:45:49.999Z,14.90
2023-01-17T12:48:19.790Z,23.73
2023-01-17T12:50:50.930Z,13.55
2023-01-17T12:54:04.777Z,16.92
2023-01-17T12:56:33.968Z,20.00
2023-01-17T12:59:17.596Z,16.65
2023-01-17T13:01:57.448Z,19.02
2023-01-17T13:04:58.425Z,19.48
2023-01-17T13:07:29.119Z,25.77
2023-01-17T13:10:03.378Z,22.83
2023-01-17T13:12:33.264Z,25.40
2023-01-17T13:15:03.031Z,24.85
2023-01-17T13:17:46.698Z,24.33
2023-01-17T13:20:28.803Z,21.73
2023-01-17T13:23:03.601Z,23.38
2023-01-17T13:25:36.064Z,36.42
2023-01-17T13:28:16.241Z,33.75
2023-01-17T13:31:13.704Z,27.58
2023-01-17T13:33:52.268Z,119.35
2023-01-17T13:36:54.184Z,27.95
2023-01-17T13:39:48.007Z,23.25
2023-01-17T13:42:55.162Z,33.63
2023-01-17T13:45:29.681Z,28.35
2023-01-17T13:48:23.281Z,28.33
2023-01-17T13:53:34.554Z,36.40
2023-01-17T13:56:19.890Z,26.00
2023-01-17T13:58:50.176Z,28.95
2023-01-17T14:01:23.365Z,27.95
2023-01-17T14:03:50.374Z,24.80
2023-01-17T14:07:07.946Z,27.02
2023-01-17T14:09:42.491Z,30.50
2023-01-17T14:12:09.357Z,28.67
2023-01-17T14:14:42.035Z,34.38
2023-01-17T14:17:36.698Z,41.20
2023-01-17T14:20:06.036Z,23.02
2023-01-17T14:22:39.171Z,20.90
2023-01-17T14:28:01.238Z,22.58
2023-01-17T14:30:33.601Z,21.02
2023-01-17T14:33:04.803Z,17.63
2023-01-17T14:35:48.699Z,20.02
2023-01-17T14:38:41.713Z,17.02
2023-01-17T14:41:13.811Z,21.55
2023-01-17T14:43:43.553Z,21.58
2023-01-17T14:46:16.652Z,15.93
2023-01-17T14:51:15.103Z,20.17
2023-01-17T14:53:53.569Z,19.13
2023-01-17T14:56:20.447Z,15.80
2023-01-17T14:58:47.273Z,19.02
2023-01-17T15:01:20.897Z,23.02
2023-01-17T15:03:54.818Z,16.27
2023-01-17T15:06:40.797Z,18.13
2023-01-17T15:09:18.814Z,18.15
2023-01-17T15:11:48.699Z,21.35
2023-01-17T15:14:27.290Z,21.33
2023-01-17T15:16:54.692Z,21.00
2023-01-17T15:19:22.474Z,21.70
2023-01-17T15:21:52.785Z,22.25
2023-01-17T15:24:29.731Z,21.75
2023-01-17T15:26:56.636Z,22.02
2023-01-17T15:29:42.493Z,19.30
2023-01-17T15:32:22.598Z,24.08
2023-01-17T15:34:50.718Z,24.63
2023-01-17T15:37:36.297Z,16.90
2023-01-17T15:40:08.548Z,16.00
2023-01-17T15:42:38.738Z,21.33
2023-01-17T15:45:11.523Z,20.40
2023-01-17T15:47:39.430Z,18.33
2023-01-17T15:50:22.882Z,19.77
2023-01-17T15:52:51.053Z,22.17
2023-01-17T15:55:29.793Z,23.20
2023-01-17T15:57:56.729Z,23.20
2023-01-17T16:00:39.909Z,21.85
2023-01-17T16:03:22.068Z,18.73
2023-01-17T16:05:49.920Z,23.73
2023-01-17T16:08:16.715Z,23.88
2023-01-17T16:10:44.533Z,25.58
2023-01-17T16:13:13.651Z,23.70
2023-01-17T16:15:41.497Z,24.38
2023-01-17T16:18:16.650Z,24.98
2023-01-17T16:20:51.950Z,34.15
2023-01-17T16:23:18.917Z,24.45
2023-01-17T16:25:46.274Z,20.50
2023-01-17T16:28:13.562Z,26.17
2023-01-17T16:30:40.494Z,25.38
2023-01-17T16:33:12.011Z,26.90
2023-01-17T16:35:40.087Z,31.13
2023-01-17T16:38:19.178Z,28.77
2023-01-17T16:40:47.582Z,29.17
2023-01-17T16:43:16.743Z,31.85
2023-01-17T16:45:52.674Z,27.58
2023-01-17T16:48:20.553Z,31.10
2023-01-17T16:50:52.426Z,32.05
2023-01-17T16:53:28.058Z,36.65
2023-01-17T16:56:05.640Z,34.30
2023-01-17T16:58:32.402Z,34.33
2023-01-17T17:01:00.368Z,31.23
2023-01-17T17:03:27.367Z,30.92
2023-01-17T17:05:56.121Z,30.83
2023-01-17T17:08:24.347Z,29.02
2023-01-17T17:10:51.691Z,29.95
2023-01-17T17:13:18.548Z,43.72
2023-01-17T17:15:45.448Z,43.10
2023-01-17T17:18:17.677Z,28.25
2023-01-17T17:20:45.309Z,27.53
2023-01-17T17:23:12.389Z,30.15
2023-01-17T17:25:39.546Z,31.85
2023-01-17T17:28:06.485Z,26.48
2023-01-17T17:30:34.550Z,30.42
2023-01-17T17:33:04.853Z,37.53
2023-01-17T17:35:34.950Z,32.38
2023-01-17T17:38:02.015Z,31.45
2023-01-17T17:40:30.448Z,29.20
2023-01-17T17:42:57.255Z,38.75
2023-01-17T17:45:24.036Z,36.13
2023-01-17T17:47:51.691Z,34.92
2023-01-17T17:50:18.655Z,28.67
2023-01-17T17:52:45.554Z,39.25
2023-01-17T17:55:13.231Z,34.35
2023-01-17T17:57:40.085Z,39.22
2023-01-17T18:00:07.785Z,34.85
2023-01-17T18:02:34.631Z,35.78
2023-01-17T18:05:02.385Z,37.50
2023-01-17T18:07:32.683Z,38.17
2023-01-17T18:10:00.019Z,38.85
2023-01-17T18:12:26.970Z,37.60
2023-01-17T18:14:53.853Z,39.92
2023-01-17T18:17:20.708Z,41.38
2023-01-17T18:19:47.553Z,39.90
2023-01-17T18:22:14.392Z,39.67
2023-01-17T18:24:41.252Z,41.00
2023-01-17T18:27:10.424Z,48.05
2023-01-17T18:29:37.239Z,50.58
2023-01-17T18:32:04.279Z,47.13
2023-01-17T18:34:31.100Z,50.03
2023-01-17T18:36:58.177Z,49.13
2023-01-17T18:39:29.810Z,52.78
2023-01-17T18:41:57.420Z,56.53
2023-01-17T18:44:24.997Z,57.80
2023-01-17T18:46:59.562Z,73.90
2023-01-17T18:49:26.403Z,80.05
2023-01-17T18:51:53.185Z,80.93
2023-01-17T18:54:21.165Z,80.78
2023-01-17T18:56:48.317Z,78.15
2023-01-17T18:59:18.372Z,100.20
2023-01-17T19:01:46.086Z,97.97
2023-01-17T19:04:14.440Z,313.10
2023-01-17T19:06:44.154Z,241.20
2023-01-17T19:09:13.372Z,258.30
2023-01-17T19:11:40.224Z,239.57
2023-01-17T19:14:07.388Z,124.07
2023-01-17T19:16:39.691Z,83.68
2023-01-17T19:19:12.724Z,106.20
2023-01-17T19:24:07.049Z,75.60
2023-01-17T19:26:34.261Z,70.75
2023-01-17T19:29:03.762Z,56.20
2023-01-17T19:31:32.013Z,55.65
2023-01-17T19:33:59.923Z,44.80
2023-01-17T19:36:29.623Z,51.58
2023-01-17T19:39:04.340Z,52.47
2023-01-17T19:41:32.830Z,51.60
2023-01-17T19:44:02.070Z,47.55
2023-01-17T19:46:29.409Z,46.95
2023-01-17T19:48:57.651Z,50.30
2023-01-17T19:51:26.737Z,45.80
2023-01-17T19:53:53.921Z,42.15
2023-01-17T19:56:24.323Z,52.88
2023-01-17T19:58:52.107Z,47.83
2023-01-17T20:01:26.965Z,55.42
2023-01-17T20:03:56.060Z,69.65
2023-01-17T20:06:27.343Z,80.70
2023-01-17T20:08:54.172Z,78.15
2023-01-17T20:11:23.374Z,92.35
2023-01-17T20:13:54.206Z,95.38
2023-01-17T20:16:22.680Z,109.82
2023-01-17T20:18:50.118Z,108.40
2023-01-17T20:21:19.868Z,128.13
2023-01-17T20:23:50.056Z,103.50
2023-01-17T20:26:19.235Z,109.72
2023-01-17T20:28:48.424Z,106.93
2023-01-17T20:31:17.532Z,99.13
2023-01-17T20:33:47.013Z,88.05
2023-01-17T20:36:15.692Z,83.25
2023-01-17T20:38:45.965Z,98.32
2023-01-17T20:41:20.744Z,73.47
2023-01-17T20:43:49.753Z,73.50
2023-01-17T20:46:17.623Z,59.22
2023-01-17T20:48:52.291Z,51.72
2023-01-17T20:51:20.506Z,57.50
2023-01-17T20:53:51.551Z,54.10
2023-01-17T20:56:18.954Z,61.42
2023-01-17T20:58:46.211Z,52.22
2023-01-17T21:01:19.833Z,45.75
2023-01-17T21:03:49.312Z,63.10
2023-01-17T21:06:16.167Z,71.65
2023-01-17T21:08:45.353Z,79.53
2023-01-17T21:11:15.342Z,80.68
2023-01-17T21:13:43.033Z,91.55
2023-01-17T21:16:12.760Z,100.40
2023-01-17T21:18:39.640Z,100.50
2023-01-17T21:21:13.821Z,98.63
2023-01-17T21:23:42.475Z,100.88
2023-01-17T21:26:12.154Z,132.57
2023-01-17T21:28:41.203Z,148.35
2023-01-17T21:31:26.383Z,152.05
2023-01-17T21:34:10.917Z,513.42
2023-01-17T21:36:40.249Z,132.80
2023-01-17T21:39:11.560Z,147.80
2023-01-17T21:41:41.128Z,131.55
2023-01-17T21:44:12.977Z,130.75
2023-01-17T21:46:40.860Z,134.23
2023-01-17T21:49:10.802Z,129.77
2023-01-17T21:51:53.723Z,129.50
2023-01-17T21:54:45.248Z,118.13
2023-01-17T21:57:36.360Z,111.50
2023-01-17T22:00:09.460Z,107.28
2023-01-17T22:05:03.294Z,89.43
2023-01-17T22:07:30.091Z,93.47
2023-01-17T22:09:57.122Z,112.90
2023-01-17T22:12:24.215Z,106.97
2023-01-17T22:14:51.171Z,119.28
2023-01-17T22:17:18.099Z,98.28
2023-01-17T22:19:46.097Z,102.93
2023-01-17T22:22:13.695Z,92.20
2023-01-17T22:24:40.645Z,101.40
2023-01-17T22:27:10.601Z,98.88
2023-01-17T22:29:37.994Z,115.65
2023-01-17T22:32:05.245Z,112.82
2023-01-17T22:34:32.425Z,111.10
2023-01-17T22:37:00.422Z,106.65
2023-01-17T22:39:27.318Z,101.15
2023-01-17T22:41:54.546Z,107.03
2023-01-17T22:44:21.421Z,98.18
2023-01-17T22:46:48.253Z,99.10
2023-01-17T22:49:16.935Z,99.03
2023-01-17T22:51:43.823Z,90.60
2023-01-17T22:54:11.510Z,90.18
2023-01-17T22:56:38.450Z,85.10
2023-01-17T22:59:11.320Z,98.65
2023-01-17T23:01:40.736Z,81.55
2023-01-17T23:04:09.931Z,81.03
2023-01-17T23:06:38.907Z,76.57
2023-01-17T23:09:09.091Z,75.55
2023-01-17T23:11:47.452Z,78.18
2023-01-17T23:14:23.389Z,75.45
2023-01-17T23:17:17.249Z,64.30
2023-01-17T23:19:45.243Z,63.83
2023-01-17T23:22:39.551Z,58.53
2023-01-17T23:25:13.961Z,65.78
2023-01-17T23:28:04.044Z,73.90
2023-01-17T23:30:39.377Z,71.28
2023-01-17T23:33:10.503Z,70.78
2023-01-17T23:35:42.106Z,66.45
2023-01-17T23:38:26.359Z,66.82
2023-01-17T23:41:12.647Z,65.50
2023-01-17T23:43:39.452Z,67.90
2023-01-17T23:46:12.763Z,63.00
2023-01-17T23:48:39.594Z,63.97
2023-01-17T23:51:09.181Z,58.85
2023-01-17T23:53:37.777Z,65.40
2023-01-17T23:56:26.320Z,67.03
2023-01-17T23:58:53.321Z,68.25
